CA-0308 weather

CLOSED Redvers Airport
Saskatchewan, Canada

Public forecast

Using degrees Celsius for public forecast. Weather courtesy of forecast.io.

METAR (pilot weather report)

Closest report is Estevan Airport, 54.9 nm (101.7 km) WSW. Retrieved 2019/05/19 18:00 UTC (20 minutes ago):

CYEN 191800Z AUTO 05009G24KT 9SM BKN200 10/M03 A3014 RMK SLP227

TAF (pilot weather forecast)

Closest forecast is Estevan Airport, 54.9 nm (101.7 km) WSW. Retrieved 2019/05/19 18:00 UTC (20 minutes ago):

TAF CYEN 191738Z 1918/1924 06012G22KT P6SM SCT050 BKN240 TEMPO 1918/1924 BKN050 BKN240 RMK FCST BASED ON AUTO OBS. NXT FCST WILL BE ISSUED AT 201145Z